Time;durP1;ratioP1;P1;durP2;ratioP2;P2;SDS_P1;SDS_P2;PMS_P1;PMS_P2;Temp;Humidity;BMP_temperature;BMP_pressure;BME280_temperature;BME280_humidity;BME280_pressure;Samples;Min_cycle;Max_cycle;Signal;HPM_P1;HPM_P2
2023/06/22 00:02:14;;;;;;;30.17;11.25;;;;;;;;;;6206955;23;20028;-56
2023/06/22 00:05:01;;;;;;;22.70;10.25;;;;;;;;;;6205453;23;20028;-53
2023/06/22 00:07:55;;;;;;;21.08;10.27;;;;;;;;;;6204541;23;20036;-54
2023/06/22 00:10:49;;;;;;;28.58;10.57;;;;;;;;;;6205352;23;20028;-56
2023/06/22 00:13:50;;;;;;;33.97;11.55;;;;;;;;;;6206715;23;20024;-55
2023/06/22 00:16:37;;;;;;;17.52;9.63;;;;;;;;;;6207095;23;20075;-53
2023/06/22 00:19:32;;;;;;;26.42;11.30;;;;;;;;;;6206545;23;20509;-53
2023/06/22 00:22:21;;;;;;;29.08;12.15;;;;;;;;;;6206926;23;20639;-47
2023/06/22 00:25:12;;;;;;;33.35;11.77;;;;;;;;;;6204954;23;20021;-47
2023/06/22 00:27:59;;;;;;;26.10;11.82;;;;;;;;;;6208644;23;20075;-47
2023/06/22 00:30:53;;;;;;;27.17;11.95;;;;;;;;;;6207647;23;20024;-50
2023/06/22 00:33:40;;;;;;;21.13;10.80;;;;;;;;;;6208572;23;20357;-56
2023/06/22 00:36:34;;;;;;;32.13;11.25;;;;;;;;;;6206697;23;20020;-58
2023/06/22 00:39:21;;;;;;;25.55;12.27;;;;;;;;;;6205807;23;20078;-53
2023/06/22 00:42:15;;;;;;;32.10;11.65;;;;;;;;;;6207059;23;20021;-53
2023/06/22 00:45:09;;;;;;;27.23;12.32;;;;;;;;;;6205290;23;20759;-57
2023/06/22 00:48:04;;;;;;;23.80;11.77;;;;;;;;;;6207814;23;20016;-55
2023/06/22 00:50:53;;;;;;;27.02;11.52;;;;;;;;;;6206230;23;20029;-49
2023/06/22 00:53:44;;;;;;;25.92;11.52;;;;;;;;;;6206976;23;20024;-50
2023/06/22 00:56:32;;;;;;;30.48;12.25;;;;;;;;;;6185268;23;20481;-60
2023/06/22 00:59:26;;;;;;;27.75;12.45;;;;;;;;;;6206813;23;20024;-60
2023/06/22 01:02:14;;;;;;;27.80;11.05;;;;;;;;;;6205705;23;20441;-60
2023/06/22 01:05:08;;;;;;;35.75;11.30;;;;;;;;;;6207155;23;20029;-60
2023/06/22 01:08:11;;;;;;;30.23;12.07;;;;;;;;;;6206743;23;20020;-60
2023/06/22 01:11:14;;;;;;;35.13;13.23;;;;;;;;;;6203929;23;20458;-54
2023/06/22 01:14:07;;;;;;;31.85;11.85;;;;;;;;;;6204093;23;20020;-56
2023/06/22 01:17:01;;;;;;;28.15;11.80;;;;;;;;;;6205654;23;20035;-54
2023/06/22 01:19:55;;;;;;;28.38;12.65;;;;;;;;;;6205744;23;20078;-58
2023/06/22 01:22:50;;;;;;;25.98;12.00;;;;;;;;;;6205975;23;20545;-56
2023/06/22 01:25:43;;;;;;;26.33;11.73;;;;;;;;;;6206693;23;20028;-52
2023/06/22 01:28:37;;;;;;;28.25;11.88;;;;;;;;;;6205890;23;20034;-59
2023/06/22 01:31:26;;;;;;;27.77;12.05;;;;;;;;;;6204183;23;20024;-60
2023/06/22 01:34:19;;;;;;;33.33;11.95;;;;;;;;;;6207088;23;20021;-60
2023/06/22 01:37:07;;;;;;;30.52;11.18;;;;;;;;;;6202662;23;20024;-60
2023/06/22 01:40:01;;;;;;;38.63;12.13;;;;;;;;;;6205617;23;20032;-61
2023/06/22 01:42:49;;;;;;;29.73;12.38;;;;;;;;;;6205345;23;20399;-60
2023/06/22 01:45:42;;;;;;;31.20;11.73;;;;;;;;;;6206306;23;20028;-57
2023/06/22 01:48:30;;;;;;;33.97;11.77;;;;;;;;;;6205864;23;20474;-55
2023/06/22 01:51:24;;;;;;;27.58;11.27;;;;;;;;;;6206303;23;20016;-65
2023/06/22 01:54:12;;;;;;;33.95;12.85;;;;;;;;;;6207249;23;20070;-66
2023/06/22 01:57:05;;;;;;;41.53;13.45;;;;;;;;;;6206202;23;20819;-65
2023/06/22 01:59:59;;;;;;;32.90;11.77;;;;;;;;;;6206105;23;20206;-65
2023/06/22 02:02:59;;;;;;;27.00;11.93;;;;;;;;;;6205866;23;20024;-65
2023/06/22 02:05:49;;;;;;;28.08;12.43;;;;;;;;;;6203423;23;20036;-65
2023/06/22 02:08:50;;;;;;;25.50;10.43;;;;;;;;;;6206170;23;20024;-57
2023/06/22 02:11:45;;;;;;;43.42;13.52;;;;;;;;;;6205621;23;20028;-57
2023/06/22 02:14:39;;;;;;;33.35;12.55;;;;;;;;;;6204710;23;20020;-58
2023/06/22 02:17:27;;;;;;;27.88;11.93;;;;;;;;;;6207425;23;20351;-58
2023/06/22 02:20:27;;;;;;;20.55;11.00;;;;;;;;;;6206370;23;20128;-59
2023/06/22 02:23:14;;;;;;;34.92;12.40;;;;;;;;;;6207690;23;20028;-50
2023/06/22 02:26:08;;;;;;;31.35;11.48;;;;;;;;;;6208618;23;20025;-64
2023/06/22 02:28:55;;;;;;;32.17;11.65;;;;;;;;;;6207516;23;20017;-65
2023/06/22 02:31:49;;;;;;;32.17;11.13;;;;;;;;;;6207527;23;20017;-65
2023/06/22 02:34:36;;;;;;;41.35;10.32;;;;;;;;;;6206078;23;20083;-65
2023/06/22 02:37:31;;;;;;;28.70;10.32;;;;;;;;;;6206072;23;20020;-65
2023/06/22 02:40:18;;;;;;;31.67;10.93;;;;;;;;;;6206151;23;20103;-65
2023/06/22 02:43:13;;;;;;;27.83;11.35;;;;;;;;;;6204731;23;20748;-67
2023/06/22 02:46:06;;;;;;;28.42;11.18;;;;;;;;;;6206207;23;20107;-69
2023/06/22 02:49:00;;;;;;;33.63;11.13;;;;;;;;;;6207229;23;20029;-67
2023/06/22 02:51:48;;;;;;;25.48;11.18;;;;;;;;;;6205881;23;20133;-60
2023/06/22 02:54:45;;;;;;;26.15;10.20;;;;;;;;;;6205134;23;20075;-68
2023/06/22 02:57:30;;;;;;;26.65;10.57;;;;;;;;;;6204669;23;20083;-67
2023/06/22 03:00:30;;;;;;;32.95;11.27;;;;;;;;;;6206918;23;20099;-67
2023/06/22 03:03:11;;;;;;;32.40;11.23;;;;;;;;;;6206613;23;20024;-67
2023/06/22 03:06:05;;;;;;;36.58;11.18;;;;;;;;;;6206347;23;20102;-67
2023/06/22 03:09:04;;;;;;;29.42;10.10;;;;;;;;;;6204322;23;20051;-67
2023/06/22 03:12:04;;;;;;;26.65;10.38;;;;;;;;;;6202913;23;20489;-50
2023/06/22 03:14:51;;;;;;;31.92;10.70;;;;;;;;;;6209762;23;20067;-52
2023/06/22 03:17:49;;;;;;;26.27;9.75;;;;;;;;;;6208348;23;20063;-49
2023/06/22 03:20:38;;;;;;;30.33;9.67;;;;;;;;;;6185868;23;20028;-51
2023/06/22 03:23:32;;;;;;;42.95;10.80;;;;;;;;;;6207998;23;20376;-51
2023/06/22 03:26:20;;;;;;;33.75;11.75;;;;;;;;;;6205648;23;20100;-52
2023/06/22 03:29:15;;;;;;;27.15;10.10;;;;;;;;;;6187406;23;20020;-51
2023/06/22 03:32:02;;;;;;;26.35;9.77;;;;;;;;;;6207127;23;20055;-56
2023/06/22 03:34:58;;;;;;;29.83;9.50;;;;;;;;;;6206483;23;20023;-54
2023/06/22 03:37:42;;;;;;;26.30;9.80;;;;;;;;;;6204126;23;20470;-55
2023/06/22 03:40:36;;;;;;;33.95;10.85;;;;;;;;;;6203040;23;20052;-56
2023/06/22 03:43:23;;;;;;;28.50;9.93;;;;;;;;;;6208314;23;20079;-54
2023/06/22 03:46:17;;;;;;;27.35;9.85;;;;;;;;;;6208341;23;20024;-66
2023/06/22 03:49:04;;;;;;;27.52;10.00;;;;;;;;;;6207953;23;20587;-66
2023/06/22 03:51:58;;;;;;;25.70;9.57;;;;;;;;;;6208411;23;20025;-66
2023/06/22 03:54:45;;;;;;;29.33;10.38;;;;;;;;;;6207365;23;20338;-66
2023/06/22 03:57:39;;;;;;;27.17;9.38;;;;;;;;;;6206628;23;20024;-66
2023/06/22 04:00:27;;;;;;;24.52;9.63;;;;;;;;;;6207348;23;20096;-66
2023/06/22 04:03:20;;;;;;;39.92;9.20;;;;;;;;;;6207768;23;20024;-66
2023/06/22 04:06:08;;;;;;;27.20;9.13;;;;;;;;;;6205271;23;20318;-51
2023/06/22 04:09:02;;;;;;;25.25;10.10;;;;;;;;;;6209147;23;20473;-53
2023/06/22 04:11:55;;;;;;;28.45;9.00;;;;;;;;;;6207692;23;20486;-52
2023/06/22 04:14:49;;;;;;;28.42;9.25;;;;;;;;;;6209025;23;20025;-53
2023/06/22 04:17:36;;;;;;;29.45;8.80;;;;;;;;;;6208074;23;20025;-51
2023/06/22 04:20:31;;;;;;;27.42;9.27;;;;;;;;;;6207271;23;20028;-51
2023/06/22 04:23:18;;;;;;;31.52;10.15;;;;;;;;;;6206689;23;20067;-55
2023/06/22 04:26:13;;;;;;;34.38;9.15;;;;;;;;;;6205306;23;20024;-65
2023/06/22 04:29:00;;;;;;;26.90;9.30;;;;;;;;;;6207676;23;20032;-57
2023/06/22 04:31:55;;;;;;;27.55;9.55;;;;;;;;;;6207354;23;20087;-59
2023/06/22 04:34:41;;;;;;;29.17;8.75;;;;;;;;;;6206035;23;20035;-59
2023/06/22 04:37:34;;;;;;;28.05;9.10;;;;;;;;;;6205553;23;20028;-59
2023/06/22 04:40:25;;;;;;;19.85;8.98;;;;;;;;;;6206782;23;20016;-58
2023/06/22 04:43:20;;;;;;;30.55;9.18;;;;;;;;;;6207673;23;20054;-48
2023/06/22 04:46:07;;;;;;;27.95;8.63;;;;;;;;;;6205432;23;20032;-53
2023/06/22 04:49:01;;;;;;;28.38;8.98;;;;;;;;;;6204876;23;20581;-49
2023/06/22 04:51:51;;;;;;;28.02;9.70;;;;;;;;;;6206790;23;20028;-49
2023/06/22 04:54:47;;;;;;;22.38;8.73;;;;;;;;;;6203210;23;20378;-49
2023/06/22 04:57:32;;;;;;;22.60;8.85;;;;;;;;;;6204976;23;20114;-51
2023/06/22 05:00:28;;;;;;;29.85;9.85;;;;;;;;;;6207342;23;20088;-65
2023/06/22 05:03:18;;;;;;;30.02;9.63;;;;;;;;;;6206947;23;20028;-54
2023/06/22 05:06:14;;;;;;;33.03;9.23;;;;;;;;;;6207974;23;20111;-57
2023/06/22 05:09:07;;;;;;;23.50;8.43;;;;;;;;;;6208337;23;20028;-56
2023/06/22 05:12:04;;;;;;;23.02;8.82;;;;;;;;;;6205810;22;20593;-58
2023/06/22 05:14:56;;;;;;;24.48;8.65;;;;;;;;;;6206956;23;20017;-56
2023/06/22 05:17:44;;;;;;;23.90;8.57;;;;;;;;;;6202836;23;20673;-54
2023/06/22 05:20:38;;;;;;;23.75;8.50;;;;;;;;;;6205630;23;20017;-65
2023/06/22 05:23:25;;;;;;;27.75;9.13;;;;;;;;;;6203760;23;20017;-51
2023/06/22 05:26:19;;;;;;;16.15;7.53;;;;;;;;;;6203777;23;20139;-50
2023/06/22 05:29:10;;;;;;;23.35;8.95;;;;;;;;;;6208487;23;20028;-54
2023/06/22 05:32:05;;;;;;;26.15;8.32;;;;;;;;;;6205112;23;20478;-53
2023/06/22 05:34:52;;;;;;;22.92;8.63;;;;;;;;;;6206216;23;20071;-53
2023/06/22 05:37:49;;;;;;;18.45;7.95;;;;;;;;;;6206389;23;20541;-48
2023/06/22 05:40:36;;;;;;;23.40;8.90;;;;;;;;;;6206314;23;20462;-49
2023/06/22 05:43:29;;;;;;;26.45;8.82;;;;;;;;;;6196177;23;20928;-50
2023/06/22 05:46:18;;;;;;;24.27;8.57;;;;;;;;;;6205545;23;20032;-49
2023/06/22 05:49:12;;;;;;;23.70;8.57;;;;;;;;;;6206563;23;20035;-50
2023/06/22 05:52:00;;;;;;;26.80;8.38;;;;;;;;;;6207113;23;20025;-52
2023/06/22 05:54:53;;;;;;;24.30;8.23;;;;;;;;;;6205889;23;20033;-50
2023/06/22 05:57:40;;;;;;;23.80;8.30;;;;;;;;;;6205579;23;20020;-53
2023/06/22 06:00:35;;;;;;;24.13;7.95;;;;;;;;;;6205889;23;20024;-56
2023/06/22 06:03:22;;;;;;;20.67;8.13;;;;;;;;;;6205476;23;20029;-55
2023/06/22 06:06:15;;;;;;;21.05;7.82;;;;;;;;;;6205961;23;20024;-49
2023/06/22 06:09:11;;;;;;;19.38;7.43;;;;;;;;;;6206920;23;20029;-50
2023/06/22 06:12:10;;;;;;;25.38;8.10;;;;;;;;;;6205299;23;20083;-54
2023/06/22 06:15:04;;;;;;;20.25;7.63;;;;;;;;;;6206990;23;20087;-65
2023/06/22 06:17:58;;;;;;;22.55;7.97;;;;;;;;;;6205760;23;20469;-63
2023/06/22 06:20:46;;;;;;;17.45;7.18;;;;;;;;;;6203851;23;20024;-63
2023/06/22 06:23:39;;;;;;;15.13;7.03;;;;;;;;;;6206589;23;20021;-63
2023/06/22 06:26:29;;;;;;;17.10;8.27;;;;;;;;;;6206375;23;20039;-64
2023/06/22 06:29:20;;;;;;;23.92;8.20;;;;;;;;;;6203465;23;20325;-63
2023/06/22 06:32:08;;;;;;;13.85;7.22;;;;;;;;;;6205583;23;20083;-50
2023/06/22 06:35:01;;;;;;;21.10;7.70;;;;;;;;;;6205243;23;20025;-58
2023/06/22 06:37:49;;;;;;;17.10;7.07;;;;;;;;;;6208083;23;20028;-48
2023/06/22 06:40:45;;;;;;;23.38;7.63;;;;;;;;;;6209417;23;20083;-51
2023/06/22 06:43:30;;;;;;;23.88;7.47;;;;;;;;;;6206519;23;20024;-49
2023/06/22 06:46:24;;;;;;;18.15;7.90;;;;;;;;;;6207813;23;20031;-50
2023/06/22 06:49:13;;;;;;;17.77;6.82;;;;;;;;;;6207510;23;20028;-46
2023/06/22 06:52:06;;;;;;;16.55;7.15;;;;;;;;;;6208019;23;20025;-52
2023/06/22 06:54:53;;;;;;;15.68;7.10;;;;;;;;;;6208028;23;20031;-66
2023/06/22 06:57:48;;;;;;;14.73;6.47;;;;;;;;;;6206756;23;20482;-65
2023/06/22 07:00:35;;;;;;;18.67;6.90;;;;;;;;;;6205901;23;20016;-67
2023/06/22 07:03:27;;;;;;;21.55;7.82;;;;;;;;;;6207835;23;20031;-66
2023/06/22 07:06:16;;;;;;;20.55;7.00;;;;;;;;;;6207810;23;20024;-68
2023/06/22 07:09:08;;;;;;;20.33;7.28;;;;;;;;;;6208610;23;20099;-62
2023/06/22 07:12:02;;;;;;;17.83;6.72;;;;;;;;;;6207106;23;20024;-48
2023/06/22 07:15:03;;;;;;;21.42;7.03;;;;;;;;;;6207832;23;20020;-48
2023/06/22 07:17:50;;;;;;;16.65;6.78;;;;;;;;;;6207917;23;20024;-50
2023/06/22 07:20:43;;;;;;;14.38;6.75;;;;;;;;;;6208025;23;20024;-50
2023/06/22 07:23:30;;;;;;;24.95;5.90;;;;;;;;;;6207606;23;20082;-49
2023/06/22 07:26:24;;;;;;;17.05;6.50;;;;;;;;;;6206484;23;20024;-55
2023/06/22 07:29:11;;;;;;;19.80;6.55;;;;;;;;;;6208656;23;20074;-68
2023/06/22 07:32:05;;;;;;;15.13;6.18;;;;;;;;;;6207707;23;20313;-50
2023/06/22 07:34:53;;;;;;;15.85;6.00;;;;;;;;;;6207485;23;20030;-51
2023/06/22 07:37:46;;;;;;;12.32;5.20;;;;;;;;;;6208059;23;20031;-48
2023/06/22 07:40:35;;;;;;;19.08;6.00;;;;;;;;;;6207806;23;20106;-52
2023/06/22 07:43:29;;;;;;;13.27;5.95;;;;;;;;;;6207327;23;20020;-50
2023/06/22 07:46:14;;;;;;;13.02;5.43;;;;;;;;;;6206891;23;20470;-56
2023/06/22 07:49:08;;;;;;;15.93;5.32;;;;;;;;;;6207344;23;20062;-60
2023/06/22 07:51:56;;;;;;;18.58;5.63;;;;;;;;;;6207102;23;20074;-61
2023/06/22 07:54:49;;;;;;;11.93;5.78;;;;;;;;;;6206614;23;20255;-61
2023/06/22 07:57:44;;;;;;;13.07;5.57;;;;;;;;;;6206952;23;20480;-61
2023/06/22 08:00:33;;;;;;;10.88;5.07;;;;;;;;;;6207305;23;20493;-61
2023/06/22 08:03:25;;;;;;;17.67;5.63;;;;;;;;;;6205702;23;20067;-61
2023/06/22 08:06:13;;;;;;;12.38;5.00;;;;;;;;;;6207521;23;20027;-55
2023/06/22 08:09:06;;;;;;;15.77;5.53;;;;;;;;;;6208582;23;20024;-68
2023/06/22 08:12:00;;;;;;;18.00;5.45;;;;;;;;;;6205264;23;20075;-68
2023/06/22 08:15:00;;;;;;;11.77;4.78;;;;;;;;;;6205022;23;20575;-68
2023/06/22 08:17:47;;;;;;;19.60;5.32;;;;;;;;;;6204950;23;20025;-68
2023/06/22 08:20:41;;;;;;;14.07;5.55;;;;;;;;;;6207632;23;20078;-70
2023/06/22 08:23:31;;;;;;;16.52;5.85;;;;;;;;;;6202905;23;20024;-48
2023/06/22 08:26:25;;;;;;;15.30;5.20;;;;;;;;;;6206666;23;20027;-47
2023/06/22 08:29:12;;;;;;;13.23;5.53;;;;;;;;;;6205991;23;20478;-49
2023/06/22 08:32:07;;;;;;;14.02;5.50;;;;;;;;;;6206893;23;20478;-49
2023/06/22 08:34:57;;;;;;;15.45;5.50;;;;;;;;;;6207546;23;20534;-46
2023/06/22 08:37:54;;;;;;;12.20;5.18;;;;;;;;;;6206606;23;20560;-51
2023/06/22 08:40:38;;;;;;;12.30;5.25;;;;;;;;;;6206486;23;20071;-52
2023/06/22 08:43:31;;;;;;;11.27;5.05;;;;;;;;;;6207047;23;20343;-52
2023/06/22 08:46:23;;;;;;;9.43;4.93;;;;;;;;;;6205278;23;20031;-52
2023/06/22 08:49:17;;;;;;;14.82;5.25;;;;;;;;;;6205621;23;20390;-49
2023/06/22 08:52:05;;;;;;;13.13;5.03;;;;;;;;;;6205904;23;20031;-53
2023/06/22 08:55:00;;;;;;;17.00;5.03;;;;;;;;;;6186814;23;20024;-50
2023/06/22 08:57:47;;;;;;;14.70;5.20;;;;;;;;;;6204939;23;20482;-49
2023/06/22 09:00:40;;;;;;;14.05;5.35;;;;;;;;;;6205455;23;20285;-48
2023/06/22 09:03:28;;;;;;;13.95;5.05;;;;;;;;;;6205970;23;20021;-50
2023/06/22 09:06:22;;;;;;;13.77;5.28;;;;;;;;;;6207396;23;20017;-52
2023/06/22 09:09:16;;;;;;;14.15;4.68;;;;;;;;;;6207509;23;20021;-46
2023/06/22 09:12:16;;;;;;;10.27;5.20;;;;;;;;;;6205223;23;20028;-60
2023/06/22 09:15:10;;;;;;;13.98;4.82;;;;;;;;;;6206945;23;20401;-52
2023/06/22 09:17:57;;;;;;;10.70;4.88;;;;;;;;;;6207232;23;20032;-49
2023/06/22 09:20:51;;;;;;;14.27;4.80;;;;;;;;;;6207483;23;20025;-51
2023/06/22 09:23:39;;;;;;;15.52;4.85;;;;;;;;;;6206771;23;20075;-49
2023/06/22 09:26:32;;;;;;;14.75;5.00;;;;;;;;;;6206520;23;20031;-50
2023/06/22 09:29:19;;;;;;;9.73;4.97;;;;;;;;;;6206550;23;20021;-51
2023/06/22 09:32:13;;;;;;;10.20;4.55;;;;;;;;;;6207359;23;20339;-49
2023/06/22 09:35:05;;;;;;;11.50;4.70;;;;;;;;;;6205975;23;20055;-51
2023/06/22 09:38:00;;;;;;;14.73;5.00;;;;;;;;;;6207179;23;20466;-49
2023/06/22 09:40:53;;;;;;;15.10;5.32;;;;;;;;;;6204276;23;20458;-55
2023/06/22 09:43:50;;;;;;;12.48;4.57;;;;;;;;;;6202816;23;20028;-57
2023/06/22 09:46:41;;;;;;;13.18;4.80;;;;;;;;;;6201868;23;20031;-54
2023/06/22 09:49:36;;;;;;;9.85;4.80;;;;;;;;;;6202925;23;20027;-53
2023/06/22 09:52:23;;;;;;;14.05;5.07;;;;;;;;;;6207067;23;20082;-55
2023/06/22 09:55:16;;;;;;;17.25;5.10;;;;;;;;;;6206410;23;20024;-55
2023/06/22 09:58:10;;;;;;;22.55;5.03;;;;;;;;;;6205734;23;20074;-59
2023/06/22 10:01:05;;;;;;;7.80;4.22;;;;;;;;;;6204741;23;20079;-71
2023/06/22 10:03:58;;;;;;;8.70;3.95;;;;;;;;;;6205968;23;20494;-71
2023/06/22 10:06:46;;;;;;;10.38;5.07;;;;;;;;;;6204306;23;20020;-71
2023/06/22 10:09:39;;;;;;;11.68;4.55;;;;;;;;;;6206691;23;20067;-71
2023/06/22 10:12:34;;;;;;;10.32;4.00;;;;;;;;;;6205141;23;20023;-71
2023/06/22 10:15:35;;;;;;;13.75;4.30;;;;;;;;;;6205825;23;20024;-50
2023/06/22 10:18:30;;;;;;;6.78;4.10;;;;;;;;;;6205165;23;20039;-52
2023/06/22 10:21:17;;;;;;;7.85;3.88;;;;;;;;;;6205136;23;20103;-49
2023/06/22 10:24:12;;;;;;;9.77;4.38;;;;;;;;;;6206267;23;20474;-52
2023/06/22 10:26:59;;;;;;;12.20;4.40;;;;;;;;;;6204393;23;20744;-59
2023/06/22 10:29:53;;;;;;;8.88;4.47;;;;;;;;;;6207802;23;20075;-57
2023/06/22 10:32:40;;;;;;;11.90;4.50;;;;;;;;;;6206057;23;20087;-53
2023/06/22 10:35:35;;;;;;;12.13;4.28;;;;;;;;;;6205939;23;20071;-56
2023/06/22 10:38:22;;;;;;;8.88;4.28;;;;;;;;;;6206240;23;20466;-56
2023/06/22 10:41:16;;;;;;;7.95;4.00;;;;;;;;;;6206395;23;20024;-54
2023/06/22 10:44:03;;;;;;;12.50;4.40;;;;;;;;;;6207115;23;20309;-51
2023/06/22 10:46:56;;;;;;;8.07;4.30;;;;;;;;;;6206164;23;20024;-53
2023/06/22 10:49:43;;;;;;;10.02;4.00;;;;;;;;;;6206318;23;20059;-55
2023/06/22 10:52:38;;;;;;;7.38;3.85;;;;;;;;;;6207095;23;20047;-54
2023/06/22 10:55:26;;;;;;;8.98;4.25;;;;;;;;;;6199292;23;20039;-59
2023/06/22 10:58:24;;;;;;;11.60;4.10;;;;;;;;;;6204787;23;20071;-54
2023/06/22 11:01:14;;;;;;;7.35;4.10;;;;;;;;;;6204836;23;20028;-54
2023/06/22 11:04:08;;;;;;;8.93;4.32;;;;;;;;;;6206784;23;20029;-53
2023/06/22 11:06:57;;;;;;;8.80;4.15;;;;;;;;;;6203460;23;20075;-54
2023/06/22 11:09:52;;;;;;;7.93;4.20;;;;;;;;;;6205884;23;20092;-54
2023/06/22 11:12:47;;;;;;;8.88;4.20;;;;;;;;;;6204893;23;20120;-72
2023/06/22 11:15:48;;;;;;;9.10;4.00;;;;;;;;;;6205520;23;20021;-59
2023/06/22 11:18:35;;;;;;;7.25;3.75;;;;;;;;;;6206298;23;20473;-59
2023/06/22 11:21:30;;;;;;;8.75;3.88;;;;;;;;;;6207240;23;20031;-60
2023/06/22 11:24:17;;;;;;;12.35;3.92;;;;;;;;;;6207420;23;20092;-59
2023/06/22 11:27:10;;;;;;;8.10;4.32;;;;;;;;;;6206487;23;20024;-59
2023/06/22 11:30:05;;;;;;;10.35;3.97;;;;;;;;;;6206904;23;20040;-48
2023/06/22 11:32:52;;;;;;;8.23;4.15;;;;;;;;;;6207863;23;20023;-50
2023/06/22 11:35:45;;;;;;;8.00;4.05;;;;;;;;;;6207691;23;20852;-50
2023/06/22 11:38:34;;;;;;;8.18;4.35;;;;;;;;;;6209500;23;20075;-50
2023/06/22 11:41:27;;;;;;;15.40;4.70;;;;;;;;;;6207670;23;20099;-52
2023/06/22 11:44:15;;;;;;;9.45;4.50;;;;;;;;;;6207360;23;20079;-59
2023/06/22 11:47:08;;;;;;;11.60;4.25;;;;;;;;;;6207555;23;20381;-59
2023/06/22 11:49:56;;;;;;;10.93;4.35;;;;;;;;;;6205502;23;20016;-59
2023/06/22 11:52:49;;;;;;;8.90;4.93;;;;;;;;;;6204693;23;20025;-59
2023/06/22 11:55:37;;;;;;;10.00;4.00;;;;;;;;;;6206961;23;20441;-59
2023/06/22 11:58:30;;;;;;;7.57;4.05;;;;;;;;;;6203887;23;20026;-53
2023/06/22 12:01:25;;;;;;;9.20;4.13;;;;;;;;;;6205877;23;20024;-71
2023/06/22 12:04:18;;;;;;;9.10;4.45;;;;;;;;;;6208101;23;20025;-71
2023/06/22 12:07:12;;;;;;;8.30;4.70;;;;;;;;;;6203787;23;20082;-71
2023/06/22 12:10:07;;;;;;;9.25;4.30;;;;;;;;;;6206573;23;20020;-71
2023/06/22 12:13:01;;;;;;;14.35;4.93;;;;;;;;;;6201854;23;20369;-70
2023/06/22 12:15:55;;;;;;;13.20;4.00;;;;;;;;;;6201203;23;20020;-71
2023/06/22 12:18:43;;;;;;;9.48;4.20;;;;;;;;;;6205808;23;20083;-47
2023/06/22 12:21:37;;;;;;;9.77;4.30;;;;;;;;;;6205255;23;20024;-49
2023/06/22 12:24:25;;;;;;;11.77;4.32;;;;;;;;;;6206009;23;20082;-52
2023/06/22 12:27:19;;;;;;;12.57;4.40;;;;;;;;;;6205432;23;20036;-52
2023/06/22 12:30:06;;;;;;;10.27;4.60;;;;;;;;;;6203947;23;20020;-53
2023/06/22 12:32:59;;;;;;;11.07;4.57;;;;;;;;;;6203971;23;20753;-51
2023/06/22 12:35:48;;;;;;;10.57;4.70;;;;;;;;;;6204662;23;20021;-47
2023/06/22 12:38:40;;;;;;;8.98;4.05;;;;;;;;;;6206577;23;20074;-59
2023/06/22 12:41:28;;;;;;;10.88;4.32;;;;;;;;;;6206450;23;20421;-60
2023/06/22 12:44:21;;;;;;;10.70;4.75;;;;;;;;;;6206648;23;20104;-59
2023/06/22 12:47:09;;;;;;;8.60;4.45;;;;;;;;;;6207014;23;20028;-59
2023/06/22 12:50:03;;;;;;;12.80;4.45;;;;;;;;;;6207071;23;20544;-60
2023/06/22 12:52:50;;;;;;;12.68;4.70;;;;;;;;;;6205614;23;20126;-59
2023/06/22 12:55:43;;;;;;;9.05;4.20;;;;;;;;;;6205666;23;20040;-68
2023/06/22 12:58:31;;;;;;;10.57;4.70;;;;;;;;;;6207653;23;20397;-69
2023/06/22 13:01:31;;;;;;;9.00;4.45;;;;;;;;;;6206392;23;20043;-69
2023/06/22 13:04:18;;;;;;;8.02;4.43;;;;;;;;;;6205304;23;20024;-55
2023/06/22 13:07:12;;;;;;;10.27;4.22;;;;;;;;;;6203810;23;20425;-50
2023/06/22 13:10:00;;;;;;;9.48;4.28;;;;;;;;;;6204709;23;20037;-53
2023/06/22 13:13:01;;;;;;;98.78;12.38;;;;;;;;;;6202465;23;20054;-52
2023/06/22 13:15:49;;;;;;;7.53;4.10;;;;;;;;;;6184350;23;20025;-53
2023/06/22 13:18:42;;;;;;;26.73;7.15;;;;;;;;;;6203985;23;20055;-53
2023/06/22 13:21:30;;;;;;;9.77;4.82;;;;;;;;;;6206250;23;20032;-51
2023/06/22 15:23:54;;;;;;;11.23;4.30;;;;;;;;;;5827637;22;8374282;-60
2023/06/22 15:26:48;;;;;;;7.20;4.07;;;;;;;;;;6181422;23;20087;-57
2023/06/22 15:29:36;;;;;;;13.45;4.88;;;;;;;;;;6175307;23;20027;-55
2023/06/22 15:32:29;;;;;;;9.98;4.50;;;;;;;;;;6182458;23;20028;-56
2023/06/22 15:35:18;;;;;;;8.05;4.70;;;;;;;;;;6183598;23;20025;-53
2023/06/22 15:38:10;;;;;;;10.50;4.85;;;;;;;;;;6177369;23;20021;-54
2023/06/22 15:40:57;;;;;;;5.80;4.25;;;;;;;;;;6175058;23;20025;-59
2023/06/22 15:43:51;;;;;;;11.25;4.65;;;;;;;;;;6176925;23;20540;-54
2023/06/22 15:46:38;;;;;;;5.90;4.25;;;;;;;;;;6175661;23;20021;-48
2023/06/22 15:49:32;;;;;;;6.75;3.92;;;;;;;;;;6175632;23;20113;-50
2023/06/22 15:52:19;;;;;;;9.05;4.50;;;;;;;;;;6175853;23;20067;-47
2023/06/22 15:55:14;;;;;;;6.30;3.88;;;;;;;;;;6175671;23;20489;-50
2023/06/22 15:58:09;;;;;;;8.57;4.13;;;;;;;;;;6176287;23;20025;-51
2023/06/22 16:01:03;;;;;;;7.22;4.25;;;;;;;;;;6175014;23;20025;-49
2023/06/22 16:03:56;;;;;;;9.02;4.15;;;;;;;;;;6165135;23;20096;-53
2023/06/22 16:06:30;;;;;;;7.13;4.38;;;;;;;;;;6174584;23;20690;-53
2023/06/22 16:08:57;;;;;;;6.88;4.18;;;;;;;;;;6176273;23;20362;-53
2023/06/22 16:11:51;;;;;;;7.53;3.90;;;;;;;;;;6176275;23;20029;-54
2023/06/22 16:14:40;;;;;;;5.70;3.85;;;;;;;;;;6176175;23;20021;-51
2023/06/22 16:17:37;;;;;;;12.05;3.95;;;;;;;;;;6173878;23;20920;-50
2023/06/22 16:20:26;;;;;;;8.77;4.03;;;;;;;;;;6175964;23;20079;-49
2023/06/22 16:23:20;;;;;;;6.10;4.05;;;;;;;;;;6169358;23;20677;-51
2023/06/22 16:26:13;;;;;;;7.53;4.22;;;;;;;;;;6171888;23;20615;-52
2023/06/22 16:29:00;;;;;;;8.65;3.92;;;;;;;;;;6173749;23;20029;-50
2023/06/22 16:31:54;;;;;;;8.73;3.97;;;;;;;;;;6175014;23;20028;-54
2023/06/22 16:34:42;;;;;;;7.50;4.32;;;;;;;;;;6177800;23;20021;-52
2023/06/22 16:37:35;;;;;;;11.77;4.43;;;;;;;;;;6176569;23;20029;-51
2023/06/22 16:40:23;;;;;;;6.60;4.03;;;;;;;;;;6176470;23;20434;-48
2023/06/22 16:43:17;;;;;;;12.02;4.22;;;;;;;;;;6172534;23;20025;-47
2023/06/22 16:46:05;;;;;;;8.55;4.57;;;;;;;;;;6173416;23;20029;-49
2023/06/22 16:49:00;;;;;;;10.73;4.20;;;;;;;;;;6174061;23;20454;-49
2023/06/22 16:51:53;;;;;;;7.65;3.80;;;;;;;;;;6172583;23;20071;-50
2023/06/22 16:54:47;;;;;;;11.18;4.25;;;;;;;;;;6174691;23;20486;-53
2023/06/22 16:57:42;;;;;;;9.13;4.30;;;;;;;;;;6174574;23;20544;-50
2023/06/22 17:00:29;;;;;;;9.43;4.20;;;;;;;;;;6174184;23;20378;-47
2023/06/22 17:03:25;;;;;;;9.82;4.45;;;;;;;;;;6172779;23;20338;-50
2023/06/22 17:06:13;;;;;;;6.88;4.35;;;;;;;;;;6173788;23;20028;-47
2023/06/22 17:09:06;;;;;;;9.18;4.18;;;;;;;;;;6173715;23;20025;-47
2023/06/22 17:11:53;;;;;;;9.88;4.32;;;;;;;;;;6174547;23;20028;-48
2023/06/22 17:14:47;;;;;;;7.85;4.35;;;;;;;;;;6173295;23;20029;-58
2023/06/22 17:17:36;;;;;;;13.02;4.68;;;;;;;;;;6169871;23;20025;-47
2023/06/22 17:20:29;;;;;;;8.52;4.78;;;;;;;;;;6173829;23;20470;-47
2023/06/22 17:23:23;;;;;;;7.60;4.22;;;;;;;;;;6171756;23;20031;-48
2023/06/22 17:26:17;;;;;;;12.35;4.95;;;;;;;;;;6173947;23;20087;-51
2023/06/22 17:29:08;;;;;;;9.95;5.18;;;;;;;;;;6174269;23;20029;-50
2023/06/22 17:32:03;;;;;;;12.93;4.80;;;;;;;;;;6174505;23;20024;-58
2023/06/22 17:34:53;;;;;;;11.90;5.05;;;;;;;;;;6174578;23;20028;-51
2023/06/22 17:37:50;;;;;;;11.30;5.20;;;;;;;;;;6174216;23;20040;-50
2023/06/22 17:40:40;;;;;;;11.63;4.80;;;;;;;;;;6175009;23;20029;-52
2023/06/22 17:43:46;;;;;;;11.55;4.47;;;;;;;;;;6173502;23;20470;-49
2023/06/22 17:46:37;;;;;;;12.77;5.38;;;;;;;;;;6174174;23;20071;-53
2023/06/22 17:49:33;;;;;;;10.57;4.90;;;;;;;;;;6174659;23;20017;-53
2023/06/22 17:52:27;;;;;;;9.57;4.88;;;;;;;;;;6170389;23;20091;-53
2023/06/22 17:55:22;;;;;;;14.27;5.45;;;;;;;;;;6173362;23;20470;-52
2023/06/22 17:58:16;;;;;;;11.38;5.18;;;;;;;;;;6174867;23;20059;-47
2023/06/22 18:01:03;;;;;;;12.45;4.97;;;;;;;;;;6173141;23;20261;-48
2023/06/22 18:03:57;;;;;;;11.20;4.80;;;;;;;;;;6167961;23;20043;-48
2023/06/22 18:06:48;;;;;;;17.75;5.80;;;;;;;;;;6173076;23;20099;-51
2023/06/22 18:09:42;;;;;;;10.75;5.20;;;;;;;;;;6173640;23;20223;-52
2023/06/22 18:12:38;;;;;;;14.32;5.20;;;;;;;;;;6172912;23;20643;-58
2023/06/22 18:15:24;;;;;;;11.67;5.13;;;;;;;;;;6173340;23;20028;-58
2023/06/22 18:18:19;;;;;;;19.52;5.13;;;;;;;;;;6166807;23;20024;-58
2023/06/22 18:21:12;;;;;;;10.75;4.93;;;;;;;;;;6173903;23;20533;-57
2023/06/22 18:24:14;;;;;;;12.38;5.85;;;;;;;;;;6171214;23;20025;-58
2023/06/22 18:27:11;;;;;;;12.30;5.30;;;;;;;;;;6173563;23;20029;-59
2023/06/22 18:30:04;;;;;;;16.15;6.03;;;;;;;;;;6172893;23;20103;-49
2023/06/22 18:32:51;;;;;;;13.32;5.82;;;;;;;;;;6172937;23;20025;-47
2023/06/22 18:35:46;;;;;;;10.95;5.22;;;;;;;;;;6171688;23;20025;-48
2023/06/22 18:38:33;;;;;;;18.83;5.87;;;;;;;;;;6172840;23;20080;-52
2023/06/22 18:41:37;;;;;;;11.30;5.78;;;;;;;;;;6172881;23;20028;-49
2023/06/22 18:44:34;;;;;;;14.98;6.32;;;;;;;;;;6167525;23;20025;-50
2023/06/22 18:47:29;;;;;;;13.48;5.90;;;;;;;;;;6169303;23;20028;-54
2023/06/22 18:50:35;;;;;;;18.17;5.40;;;;;;;;;;6172334;23;20094;-52
2023/06/22 18:53:28;;;;;;;18.20;5.97;;;;;;;;;;6170540;23;20241;-53
2023/06/22 18:56:15;;;;;;;17.05;6.32;;;;;;;;;;6172246;23;20025;-55